CheckWX is a tool to help pilots better visualize weather data.  It is not intended as a substitute for an official pre-flight weather briefing.

18:18:55 UTC

SBCF METAR
Tancredo Neves International Airport
Belo Horizonte, Brazil
Current

19 mins ago

SBCF 261800Z 20004KT 9999 SCT040 FEW045TCU BKN100 28/18 Q1014
Observed
Jan-26 @ 18:00 UTC
Wind
  • 200° at 4 KTS
Visibility
10,000+ meters
Flight Rules
VFR
Cloud Levels
  • Scattered at 4,000' AGL
  • Few at 4,500' AGL
  • Broken at 10,000' AGL
Temperature
28°C / 82°F
Dewpoint
18°C / 64°F
Heat Index
29°C / 84°F
Humidity
55%
Altimeter
29.94" Hg
Pressure
1013.92 hPa
Previous

1 hour ago

SBCF 261700Z 22002KT 9999 SCT035 FEW040TCU BKN100 28/18 Q1014
Observed
Jan-26 @ 17:00 UTC
Wind
  • 220° at 2 KTS
Visibility
10,000+ meters
Flight Rules
VFR
Cloud Levels
  • Scattered at 3,500' AGL
  • Few at 4,000' AGL
  • Broken at 10,000' AGL
Temperature
28°C / 82°F
Dewpoint
18°C / 64°F
Heat Index
29°C / 84°F
Humidity
55%
Altimeter
29.94" Hg
Pressure
1013.92 hPa
Previous

2 hours ago

SBCF 261600Z 09003KT 9999 BKN030 26/19 Q1015
Observed
Jan-26 @ 16:00 UTC
Wind
  • 090° at 3 KTS
Visibility
10,000+ meters
Flight Rules
MVFR
Cloud Levels
  • Broken at 3,000' AGL
Temperature
26°C / 79°F
Dewpoint
19°C / 66°F
Humidity
65%
Altimeter
29.97" Hg
Pressure
1014.92 hPa